sensor_id;sensor_type;location;lat;lon;timestamp;temperature;humidity
40952;DHT22;26682;51.660;19.338;2022-12-29T00:00:06;4.50;99.90
40952;DHT22;26682;51.660;19.338;2022-12-29T00:02:22;4.50;99.90
40952;DHT22;26682;51.660;19.338;2022-12-29T00:04:12;4.40;99.90
40952;DHT22;26682;51.660;19.338;2022-12-29T00:06:01;4.40;99.90
40952;DHT22;26682;51.660;19.338;2022-12-29T00:07:51;4.50;99.90
40952;DHT22;26682;51.660;19.338;2022-12-29T00:09:39;4.40;99.90
40952;DHT22;26682;51.660;19.338;2022-12-29T00:11:27;4.40;99.90
40952;DHT22;26682;51.660;19.338;2022-12-29T00:13:14;4.40;99.90
40952;DHT22;26682;51.660;19.338;2022-12-29T00:15:20;4.50;99.90
40952;DHT22;26682;51.660;19.338;2022-12-29T00:17:26;4.40;99.90
40952;DHT22;26682;51.660;19.338;2022-12-29T00:19:13;4.50;99.90
40952;DHT22;26682;51.660;19.338;2022-12-29T00:21:21;4.50;99.90
40952;DHT22;26682;51.660;19.338;2022-12-29T00:23:27;4.50;99.90
40952;DHT22;26682;51.660;19.338;2022-12-29T00:25:32;4.50;99.90
40952;DHT22;26682;51.660;19.338;2022-12-29T00:27:38;4.50;99.90
40952;DHT22;26682;51.660;19.338;2022-12-29T00:29:52;4.50;99.90
40952;DHT22;26682;51.660;19.338;2022-12-29T00:31:59;4.50;99.90
40952;DHT22;26682;51.660;19.338;2022-12-29T00:34:10;4.50;99.90
40952;DHT22;26682;51.660;19.338;2022-12-29T00:36:25;4.50;99.90
40952;DHT22;26682;51.660;19.338;2022-12-29T00:38:14;4.50;99.90
40952;DHT22;26682;51.660;19.338;2022-12-29T00:40:20;4.50;99.90
40952;DHT22;26682;51.660;19.338;2022-12-29T00:42:26;4.50;99.90
40952;DHT22;26682;51.660;19.338;2022-12-29T00:44:32;4.50;99.90
40952;DHT22;26682;51.660;19.338;2022-12-29T00:46:20;4.50;99.90
40952;DHT22;26682;51.660;19.338;2022-12-29T00:48:08;4.50;99.90
40952;DHT22;26682;51.660;19.338;2022-12-29T00:49:55;4.50;99.90
40952;DHT22;26682;51.660;19.338;2022-12-29T00:51:43;4.50;99.90
40952;DHT22;26682;51.660;19.338;2022-12-29T00:53:30;4.50;99.90
40952;DHT22;26682;51.660;19.338;2022-12-29T00:55:17;4.50;99.90
40952;DHT22;26682;51.660;19.338;2022-12-29T00:57:07;4.50;99.90
40952;DHT22;26682;51.660;19.338;2022-12-29T00:58:54;4.50;99.90
40952;DHT22;26682;51.660;19.338;2022-12-29T01:00:41;4.50;99.90
40952;DHT22;26682;51.660;19.338;2022-12-29T01:02:29;4.50;99.90
40952;DHT22;26682;51.660;19.338;2022-12-29T01:04:16;4.50;99.90
40952;DHT22;26682;51.660;19.338;2022-12-29T01:06:07;4.50;99.90
40952;DHT22;26682;51.660;19.338;2022-12-29T01:07:57;4.50;99.90
40952;DHT22;26682;51.660;19.338;2022-12-29T01:09:44;4.50;99.90
40952;DHT22;26682;51.660;19.338;2022-12-29T01:11:50;4.50;99.90
40952;DHT22;26682;51.660;19.338;2022-12-29T01:13:38;4.50;99.90
40952;DHT22;26682;51.660;19.338;2022-12-29T01:15:27;4.50;99.90
40952;DHT22;26682;51.660;19.338;2022-12-29T01:17:15;4.50;99.90
40952;DHT22;26682;51.660;19.338;2022-12-29T01:19:03;4.50;99.90
40952;DHT22;26682;51.660;19.338;2022-12-29T01:20:57;4.50;99.90
40952;DHT22;26682;51.660;19.338;2022-12-29T01:22:44;4.50;99.90
40952;DHT22;26682;51.660;19.338;2022-12-29T01:24:32;4.50;99.90
40952;DHT22;26682;51.660;19.338;2022-12-29T01:26:20;4.50;99.90
40952;DHT22;26682;51.660;19.338;2022-12-29T01:28:07;4.60;96.90
40952;DHT22;26682;51.660;19.338;2022-12-29T01:29:55;4.60;99.90
40952;DHT22;26682;51.660;19.338;2022-12-29T01:31:42;4.60;99.90
40952;DHT22;26682;51.660;19.338;2022-12-29T01:33:30;4.60;99.90
40952;DHT22;26682;51.660;19.338;2022-12-29T01:35:17;4.60;99.90
40952;DHT22;26682;51.660;19.338;2022-12-29T01:37:05;4.60;94.80
40952;DHT22;26682;51.660;19.338;2022-12-29T01:38:53;4.60;94.90
40952;DHT22;26682;51.660;19.338;2022-12-29T01:40:46;4.60;99.90
40952;DHT22;26682;51.660;19.338;2022-12-29T01:42:34;4.60;99.20
40952;DHT22;26682;51.660;19.338;2022-12-29T01:45:01;4.60;92.00
40952;DHT22;26682;51.660;19.338;2022-12-29T01:46:48;4.60;95.50
40952;DHT22;26682;51.660;19.338;2022-12-29T01:48:37;4.60;96.70
40952;DHT22;26682;51.660;19.338;2022-12-29T01:50:31;4.60;88.50
40952;DHT22;26682;51.660;19.338;2022-12-29T01:52:19;4.60;95.30
40952;DHT22;26682;51.660;19.338;2022-12-29T01:54:14;4.70;74.70
40952;DHT22;26682;51.660;19.338;2022-12-29T01:56:06;4.70;78.70
40952;DHT22;26682;51.660;19.338;2022-12-29T01:57:56;4.70;59.90
40952;DHT22;26682;51.660;19.338;2022-12-29T01:59:56;4.70;77.30
40952;DHT22;26682;51.660;19.338;2022-12-29T02:01:44;4.70;60.50
40952;DHT22;26682;51.660;19.338;2022-12-29T02:03:33;4.70;57.70
40952;DHT22;26682;51.660;19.338;2022-12-29T02:05:43;4.70;73.50
40952;DHT22;26682;51.660;19.338;2022-12-29T02:07:32;4.70;68.80
40952;DHT22;26682;51.660;19.338;2022-12-29T02:09:20;4.70;73.30
40952;DHT22;26682;51.660;19.338;2022-12-29T02:11:10;4.70;74.40
40952;DHT22;26682;51.660;19.338;2022-12-29T02:12:57;4.70;67.00
40952;DHT22;26682;51.660;19.338;2022-12-29T02:14:45;4.70;69.50
40952;DHT22;26682;51.660;19.338;2022-12-29T02:25:51;4.70;47.20
40952;DHT22;26682;51.660;19.338;2022-12-29T02:28:20;4.80;37.70
40952;DHT22;26682;51.660;19.338;2022-12-29T02:39:12;4.70;33.80
40952;DHT22;26682;51.660;19.338;2022-12-29T02:41:11;4.70;17.70
40952;DHT22;26682;51.660;19.338;2022-12-29T02:45:26;4.70;46.30
40952;DHT22;26682;51.660;19.338;2022-12-29T02:47:30;4.70;45.20
40952;DHT22;26682;51.660;19.338;2022-12-29T02:49:34;4.70;31.70
40952;DHT22;26682;51.660;19.338;2022-12-29T02:51:39;4.80;30.50
40952;DHT22;26682;51.660;19.338;2022-12-29T02:53:28;4.70;45.00
40952;DHT22;26682;51.660;19.338;2022-12-29T02:55:35;4.70;49.40
40952;DHT22;26682;51.660;19.338;2022-12-29T02:59:14;4.80;39.30
40952;DHT22;26682;51.660;19.338;2022-12-29T03:01:05;4.80;42.50
40952;DHT22;26682;51.660;19.338;2022-12-29T03:03:31;4.80;26.10
40952;DHT22;26682;51.660;19.338;2022-12-29T03:07:52;4.80;4.90
40952;DHT22;26682;51.660;19.338;2022-12-29T03:09:57;4.80;15.30
40952;DHT22;26682;51.660;19.338;2022-12-29T03:15:10;4.70;60.80
40952;DHT22;26682;51.660;19.338;2022-12-29T03:17:30;4.60;42.60
40952;DHT22;26682;51.660;19.338;2022-12-29T03:19:37;4.60;45.40
40952;DHT22;26682;51.660;19.338;2022-12-29T03:21:38;4.60;42.00
40952;DHT22;26682;51.660;19.338;2022-12-29T03:23:48;4.60;38.90
40952;DHT22;26682;51.660;19.338;2022-12-29T03:25:42;4.60;40.70
40952;DHT22;26682;51.660;19.338;2022-12-29T03:27:41;4.60;54.30
40952;DHT22;26682;51.660;19.338;2022-12-29T03:29:34;4.60;47.10
40952;DHT22;26682;51.660;19.338;2022-12-29T03:31:23;4.60;26.70
40952;DHT22;26682;51.660;19.338;2022-12-29T03:33:15;4.70;34.90
40952;DHT22;26682;51.660;19.338;2022-12-29T03:35:05;4.70;44.10
40952;DHT22;26682;51.660;19.338;2022-12-29T03:37:02;4.70;18.50
40952;DHT22;26682;51.660;19.338;2022-12-29T03:38:59;4.70;27.70
40952;DHT22;26682;51.660;19.338;2022-12-29T03:40:51;4.70;37.70
40952;DHT22;26682;51.660;19.338;2022-12-29T03:42:40;4.70;28.90
40952;DHT22;26682;51.660;19.338;2022-12-29T03:44:35;4.70;26.70
40952;DHT22;26682;51.660;19.338;2022-12-29T03:46:23;4.70;25.20
40952;DHT22;26682;51.660;19.338;2022-12-29T03:48:11;4.70;99.90
40952;DHT22;26682;51.660;19.338;2022-12-29T03:50:01;4.70;15.00
40952;DHT22;26682;51.660;19.338;2022-12-29T03:51:49;4.70;34.30
40952;DHT22;26682;51.660;19.338;2022-12-29T03:53:38;4.70;16.00
40952;DHT22;26682;51.660;19.338;2022-12-29T03:55:26;4.70;5.70
40952;DHT22;26682;51.660;19.338;2022-12-29T03:57:13;4.70;78.10
40952;DHT22;26682;51.660;19.338;2022-12-29T03:59:16;4.70;31.20
40952;DHT22;26682;51.660;19.338;2022-12-29T04:01:05;4.70;26.00
40952;DHT22;26682;51.660;19.338;2022-12-29T04:02:56;4.70;99.90
40952;DHT22;26682;51.660;19.338;2022-12-29T04:04:43;4.70;31.00
40952;DHT22;26682;51.660;19.338;2022-12-29T04:06:32;4.70;70.20
40952;DHT22;26682;51.660;19.338;2022-12-29T04:08:28;4.70;13.10
40952;DHT22;26682;51.660;19.338;2022-12-29T04:10:15;4.70;1.00
40952;DHT22;26682;51.660;19.338;2022-12-29T04:12:04;4.70;7.40
40952;DHT22;26682;51.660;19.338;2022-12-29T04:13:54;4.70;30.60
40952;DHT22;26682;51.660;19.338;2022-12-29T04:15:44;4.70;35.40
40952;DHT22;26682;51.660;19.338;2022-12-29T04:17:32;4.70;11.00
40952;DHT22;26682;51.660;19.338;2022-12-29T04:19:22;4.70;31.60
40952;DHT22;26682;51.660;19.338;2022-12-29T04:21:09;4.70;15.90
40952;DHT22;26682;51.660;19.338;2022-12-29T04:23:03;4.70;13.80
40952;DHT22;26682;51.660;19.338;2022-12-29T04:24:52;4.70;17.40
40952;DHT22;26682;51.660;19.338;2022-12-29T04:26:40;4.70;20.20
40952;DHT22;26682;51.660;19.338;2022-12-29T04:28:46;4.70;4.80
40952;DHT22;26682;51.660;19.338;2022-12-29T04:30:56;4.80;8.30
40952;DHT22;26682;51.660;19.338;2022-12-29T04:32:48;4.80;19.10
40952;DHT22;26682;51.660;19.338;2022-12-29T04:34:36;4.80;25.30
40952;DHT22;26682;51.660;19.338;2022-12-29T04:36:23;4.80;22.60
40952;DHT22;26682;51.660;19.338;2022-12-29T04:38:16;4.80;11.00
40952;DHT22;26682;51.660;19.338;2022-12-29T04:40:06;4.80;11.00
40952;DHT22;26682;51.660;19.338;2022-12-29T04:41:53;4.80;19.00
40952;DHT22;26682;51.660;19.338;2022-12-29T04:43:41;4.80;13.40
40952;DHT22;26682;51.660;19.338;2022-12-29T04:45:44;4.80;16.00
40952;DHT22;26682;51.660;19.338;2022-12-29T04:47:44;4.80;9.70
40952;DHT22;26682;51.660;19.338;2022-12-29T04:50:02;4.80;1.00
40952;DHT22;26682;51.660;19.338;2022-12-29T04:51:59;4.80;1.00
40952;DHT22;26682;51.660;19.338;2022-12-29T04:53:47;4.90;1.00
40952;DHT22;26682;51.660;19.338;2022-12-29T04:55:34;4.90;1.00
40952;DHT22;26682;51.660;19.338;2022-12-29T04:57:21;4.90;1.00
40952;DHT22;26682;51.660;19.338;2022-12-29T04:59:13;4.90;1.00
40952;DHT22;26682;51.660;19.338;2022-12-29T05:01:02;4.90;1.00
40952;DHT22;26682;51.660;19.338;2022-12-29T05:02:50;4.90;1.00
40952;DHT22;26682;51.660;19.338;2022-12-29T05:04:38;4.90;1.00
40952;DHT22;26682;51.660;19.338;2022-12-29T05:06:25;4.90;8.50
40952;DHT22;26682;51.660;19.338;2022-12-29T05:08:13;4.90;1.00
40952;DHT22;26682;51.660;19.338;2022-12-29T05:10:01;5.00;1.00
40952;DHT22;26682;51.660;19.338;2022-12-29T05:11:49;4.90;3.30
40952;DHT22;26682;51.660;19.338;2022-12-29T05:13:37;4.90;1.00
40952;DHT22;26682;51.660;19.338;2022-12-29T05:15:24;4.90;1.00
40952;DHT22;26682;51.660;19.338;2022-12-29T05:17:11;4.90;1.00
40952;DHT22;26682;51.660;19.338;2022-12-29T05:19:00;4.90;1.00
40952;DHT22;26682;51.660;19.338;2022-12-29T05:20:50;4.90;1.00
40952;DHT22;26682;51.660;19.338;2022-12-29T05:22:40;4.90;1.00
40952;DHT22;26682;51.660;19.338;2022-12-29T05:24:27;4.90;1.00
40952;DHT22;26682;51.660;19.338;2022-12-29T05:26:16;4.90;1.00
40952;DHT22;26682;51.660;19.338;2022-12-29T05:28:22;4.80;1.00
40952;DHT22;26682;51.660;19.338;2022-12-29T05:30:16;4.90;1.00
40952;DHT22;26682;51.660;19.338;2022-12-29T05:32:04;4.90;1.00
40952;DHT22;26682;51.660;19.338;2022-12-29T05:33:51;4.90;97.80
40952;DHT22;26682;51.660;19.338;2022-12-29T05:35:39;4.90;1.00
40952;DHT22;26682;51.660;19.338;2022-12-29T05:37:27;4.80;1.00
40952;DHT22;26682;51.660;19.338;2022-12-29T05:39:14;4.80;1.00
40952;DHT22;26682;51.660;19.338;2022-12-29T05:41:04;4.90;1.00
40952;DHT22;26682;51.660;19.338;2022-12-29T05:43:20;4.90;1.00
40952;DHT22;26682;51.660;19.338;2022-12-29T05:45:26;4.90;1.00
40952;DHT22;26682;51.660;19.338;2022-12-29T05:47:22;4.80;1.00
40952;DHT22;26682;51.660;19.338;2022-12-29T05:49:22;4.90;1.00
40952;DHT22;26682;51.660;19.338;2022-12-29T05:51:27;4.90;1.00
40952;DHT22;26682;51.660;19.338;2022-12-29T05:53:14;4.90;1.00
40952;DHT22;26682;51.660;19.338;2022-12-29T05:55:03;4.90;1.00
40952;DHT22;26682;51.660;19.338;2022-12-29T05:56:53;4.90;1.00
40952;DHT22;26682;51.660;19.338;2022-12-29T05:58:40;5.00;1.00
40952;DHT22;26682;51.660;19.338;2022-12-29T06:00:27;5.00;1.00
40952;DHT22;26682;51.660;19.338;2022-12-29T06:02:15;5.00;1.00
40952;DHT22;26682;51.660;19.338;2022-12-29T06:04:03;5.00;1.00
40952;DHT22;26682;51.660;19.338;2022-12-29T06:05:51;5.00;1.00
40952;DHT22;26682;51.660;19.338;2022-12-29T06:07:38;5.00;71.10
40952;DHT22;26682;51.660;19.338;2022-12-29T06:09:26;5.00;74.40
40952;DHT22;26682;51.660;19.338;2022-12-29T06:11:13;5.00;1.00
40952;DHT22;26682;51.660;19.338;2022-12-29T06:13:08;5.00;1.00
40952;DHT22;26682;51.660;19.338;2022-12-29T06:14:59;5.00;1.00
40952;DHT22;26682;51.660;19.338;2022-12-29T06:16:47;5.10;1.00
40952;DHT22;26682;51.660;19.338;2022-12-29T06:18:34;5.10;1.00
40952;DHT22;26682;51.660;19.338;2022-12-29T06:20:21;5.10;1.00
40952;DHT22;26682;51.660;19.338;2022-12-29T06:22:09;5.10;1.00
40952;DHT22;26682;51.660;19.338;2022-12-29T06:24:01;5.10;1.00
40952;DHT22;26682;51.660;19.338;2022-12-29T06:25:48;5.20;1.00
40952;DHT22;26682;51.660;19.338;2022-12-29T06:27:36;5.20;1.00
40952;DHT22;26682;51.660;19.338;2022-12-29T06:29:24;5.20;1.00
40952;DHT22;26682;51.660;19.338;2022-12-29T06:31:12;5.20;1.00
40952;DHT22;26682;51.660;19.338;2022-12-29T06:33:00;5.20;1.00
40952;DHT22;26682;51.660;19.338;2022-12-29T06:34:49;5.10;1.00
40952;DHT22;26682;51.660;19.338;2022-12-29T06:36:37;5.00;1.00
40952;DHT22;26682;51.660;19.338;2022-12-29T06:38:24;5.00;1.00
40952;DHT22;26682;51.660;19.338;2022-12-29T06:40:11;4.90;1.00
40952;DHT22;26682;51.660;19.338;2022-12-29T06:42:25;4.90;1.00
40952;DHT22;26682;51.660;19.338;2022-12-29T06:44:29;4.80;1.00
40952;DHT22;26682;51.660;19.338;2022-12-29T06:46:20;4.80;1.00
40952;DHT22;26682;51.660;19.338;2022-12-29T06:48:07;4.80;1.00
40952;DHT22;26682;51.660;19.338;2022-12-29T06:49:55;4.80;1.00
40952;DHT22;26682;51.660;19.338;2022-12-29T06:51:42;4.80;1.00
40952;DHT22;26682;51.660;19.338;2022-12-29T06:53:30;4.80;1.00
40952;DHT22;26682;51.660;19.338;2022-12-29T06:55:18;4.90;1.00
40952;DHT22;26682;51.660;19.338;2022-12-29T06:57:06;4.90;1.00
40952;DHT22;26682;51.660;19.338;2022-12-29T06:58:53;5.00;1.00
40952;DHT22;26682;51.660;19.338;2022-12-29T07:00:41;5.00;1.00
40952;DHT22;26682;51.660;19.338;2022-12-29T07:02:28;5.00;1.00
40952;DHT22;26682;51.660;19.338;2022-12-29T07:04:16;5.00;1.00
40952;DHT22;26682;51.660;19.338;2022-12-29T07:06:03;5.00;1.00
40952;DHT22;26682;51.660;19.338;2022-12-29T07:07:51;5.00;1.00
40952;DHT22;26682;51.660;19.338;2022-12-29T07:09:39;5.10;1.00
40952;DHT22;26682;51.660;19.338;2022-12-29T07:11:26;5.10;1.00
40952;DHT22;26682;51.660;19.338;2022-12-29T07:13:14;5.10;1.00
40952;DHT22;26682;51.660;19.338;2022-12-29T07:15:02;5.10;1.00
40952;DHT22;26682;51.660;19.338;2022-12-29T07:16:49;5.10;1.00
40952;DHT22;26682;51.660;19.338;2022-12-29T07:18:37;5.10;1.00
40952;DHT22;26682;51.660;19.338;2022-12-29T07:20:24;5.20;1.00
40952;DHT22;26682;51.660;19.338;2022-12-29T07:22:13;5.20;1.00
40952;DHT22;26682;51.660;19.338;2022-12-29T07:24:00;5.20;1.00
40952;DHT22;26682;51.660;19.338;2022-12-29T07:25:48;5.20;1.00
40952;DHT22;26682;51.660;19.338;2022-12-29T07:27:35;5.20;1.00
40952;DHT22;26682;51.660;19.338;2022-12-29T07:29:23;5.20;1.00
40952;DHT22;26682;51.660;19.338;2022-12-29T07:31:17;5.20;1.00
40952;DHT22;26682;51.660;19.338;2022-12-29T07:33:05;5.30;1.00
40952;DHT22;26682;51.660;19.338;2022-12-29T07:34:53;5.30;1.00
40952;DHT22;26682;51.660;19.338;2022-12-29T07:36:40;5.30;1.00
40952;DHT22;26682;51.660;19.338;2022-12-29T07:38:31;5.30;1.00
40952;DHT22;26682;51.660;19.338;2022-12-29T07:40:18;5.30;1.00
40952;DHT22;26682;51.660;19.338;2022-12-29T07:42:06;5.30;1.00
40952;DHT22;26682;51.660;19.338;2022-12-29T07:44:04;5.40;1.00
40952;DHT22;26682;51.660;19.338;2022-12-29T07:46:15;5.40;1.00
40952;DHT22;26682;51.660;19.338;2022-12-29T07:48:23;5.40;1.00
40952;DHT22;26682;51.660;19.338;2022-12-29T07:50:10;5.40;1.00
40952;DHT22;26682;51.660;19.338;2022-12-29T07:51:57;5.40;1.00
40952;DHT22;26682;51.660;19.338;2022-12-29T07:53:45;5.40;1.00
40952;DHT22;26682;51.660;19.338;2022-12-29T07:55:33;5.40;1.00
40952;DHT22;26682;51.660;19.338;2022-12-29T07:57:20;5.50;1.00
40952;DHT22;26682;51.660;19.338;2022-12-29T07:59:16;5.50;1.00
40952;DHT22;26682;51.660;19.338;2022-12-29T08:01:03;5.50;1.00
40952;DHT22;26682;51.660;19.338;2022-12-29T08:02:51;5.60;1.00
40952;DHT22;26682;51.660;19.338;2022-12-29T08:04:39;5.60;1.00
40952;DHT22;26682;51.660;19.338;2022-12-29T08:06:26;5.60;1.00
40952;DHT22;26682;51.660;19.338;2022-12-29T08:08:14;5.60;1.00
40952;DHT22;26682;51.660;19.338;2022-12-29T08:10:01;5.60;1.00
40952;DHT22;26682;51.660;19.338;2022-12-29T08:11:48;5.60;1.00
40952;DHT22;26682;51.660;19.338;2022-12-29T08:13:36;5.60;1.00
40952;DHT22;26682;51.660;19.338;2022-12-29T08:15:23;5.70;1.00
40952;DHT22;26682;51.660;19.338;2022-12-29T08:17:18;5.70;1.00
40952;DHT22;26682;51.660;19.338;2022-12-29T08:19:05;5.70;1.00
40952;DHT22;26682;51.660;19.338;2022-12-29T08:20:53;5.70;1.00
40952;DHT22;26682;51.660;19.338;2022-12-29T08:22:42;5.70;1.00
40952;DHT22;26682;51.660;19.338;2022-12-29T08:24:29;5.70;1.00
40952;DHT22;26682;51.660;19.338;2022-12-29T08:26:17;5.80;1.00
40952;DHT22;26682;51.660;19.338;2022-12-29T08:28:04;5.80;1.00
40952;DHT22;26682;51.660;19.338;2022-12-29T08:29:51;5.90;1.00
40952;DHT22;26682;51.660;19.338;2022-12-29T08:31:39;5.90;1.00
40952;DHT22;26682;51.660;19.338;2022-12-29T08:33:27;5.90;1.00
40952;DHT22;26682;51.660;19.338;2022-12-29T08:35:15;6.00;1.00
40952;DHT22;26682;51.660;19.338;2022-12-29T08:37:03;6.00;1.00
40952;DHT22;26682;51.660;19.338;2022-12-29T08:38:50;6.00;1.00
40952;DHT22;26682;51.660;19.338;2022-12-29T08:40:37;6.10;1.00
40952;DHT22;26682;51.660;19.338;2022-12-29T08:42:25;6.10;1.00
40952;DHT22;26682;51.660;19.338;2022-12-29T08:44:18;6.10;1.00
40952;DHT22;26682;51.660;19.338;2022-12-29T08:46:05;6.10;1.00
40952;DHT22;26682;51.660;19.338;2022-12-29T08:47:53;6.20;1.00
40952;DHT22;26682;51.660;19.338;2022-12-29T08:49:41;6.20;1.00
40952;DHT22;26682;51.660;19.338;2022-12-29T08:51:28;6.20;1.00
40952;DHT22;26682;51.660;19.338;2022-12-29T08:53:16;6.30;1.00
40952;DHT22;26682;51.660;19.338;2022-12-29T08:55:05;6.30;1.00
40952;DHT22;26682;51.660;19.338;2022-12-29T08:56:52;6.30;1.00
40952;DHT22;26682;51.660;19.338;2022-12-29T08:58:47;6.40;1.00
40952;DHT22;26682;51.660;19.338;2022-12-29T09:00:34;6.40;1.00
40952;DHT22;26682;51.660;19.338;2022-12-29T09:02:22;6.40;1.00
40952;DHT22;26682;51.660;19.338;2022-12-29T09:04:11;6.40;1.00
40952;DHT22;26682;51.660;19.338;2022-12-29T09:06:02;6.50;1.00
40952;DHT22;26682;51.660;19.338;2022-12-29T09:07:49;6.50;1.00
40952;DHT22;26682;51.660;19.338;2022-12-29T09:09:37;6.50;1.00
40952;DHT22;26682;51.660;19.338;2022-12-29T09:11:26;6.50;1.00
40952;DHT22;26682;51.660;19.338;2022-12-29T09:13:14;6.40;1.00
40952;DHT22;26682;51.660;19.338;2022-12-29T09:15:02;6.40;99.90
40952;DHT22;26682;51.660;19.338;2022-12-29T09:16:54;6.50;99.90
40952;DHT22;26682;51.660;19.338;2022-12-29T09:19:01;6.50;1.00
40952;DHT22;26682;51.660;19.338;2022-12-29T09:20:49;6.50;99.90
40952;DHT22;26682;51.660;19.338;2022-12-29T09:22:37;6.50;1.00
40952;DHT22;26682;51.660;19.338;2022-12-29T09:24:25;6.60;99.90
40952;DHT22;26682;51.660;19.338;2022-12-29T09:26:12;6.60;99.90
40952;DHT22;26682;51.660;19.338;2022-12-29T09:28:00;6.60;99.90
40952;DHT22;26682;51.660;19.338;2022-12-29T09:29:53;6.70;99.90
40952;DHT22;26682;51.660;19.338;2022-12-29T09:31:40;6.80;99.90
40952;DHT22;26682;51.660;19.338;2022-12-29T09:33:28;6.80;99.90
40952;DHT22;26682;51.660;19.338;2022-12-29T09:35:16;6.80;99.90
40952;DHT22;26682;51.660;19.338;2022-12-29T09:37:05;6.80;99.90
40952;DHT22;26682;51.660;19.338;2022-12-29T09:38:53;6.90;1.00
40952;DHT22;26682;51.660;19.338;2022-12-29T09:40:41;6.90;1.00
40952;DHT22;26682;51.660;19.338;2022-12-29T09:47:02;7.00;1.00
40952;DHT22;26682;51.660;19.338;2022-12-29T09:49:04;7.00;1.00
40952;DHT22;26682;51.660;19.338;2022-12-29T09:50:57;7.10;1.00
40952;DHT22;26682;51.660;19.338;2022-12-29T09:52:52;7.10;1.00
40952;DHT22;26682;51.660;19.338;2022-12-29T09:54:55;7.10;1.00
40952;DHT22;26682;51.660;19.338;2022-12-29T09:56:52;7.20;1.00
40952;DHT22;26682;51.660;19.338;2022-12-29T09:58:44;7.50;1.00
40952;DHT22;26682;51.660;19.338;2022-12-29T10:01:05;7.70;1.00
40952;DHT22;26682;51.660;19.338;2022-12-29T10:03:01;7.60;1.00
40952;DHT22;26682;51.660;19.338;2022-12-29T10:04:51;7.50;99.90
40952;DHT22;26682;51.660;19.338;2022-12-29T10:06:54;7.50;99.90
40952;DHT22;26682;51.660;19.338;2022-12-29T10:13:43;7.50;99.90
40952;DHT22;26682;51.660;19.338;2022-12-29T10:15:49;7.50;99.90
40952;DHT22;26682;51.660;19.338;2022-12-29T10:17:53;7.50;99.90
40952;DHT22;26682;51.660;19.338;2022-12-29T10:23:59;7.50;99.90
40952;DHT22;26682;51.660;19.338;2022-12-29T10:25:50;7.50;99.90
40952;DHT22;26682;51.660;19.338;2022-12-29T10:27:40;7.50;99.90
40952;DHT22;26682;51.660;19.338;2022-12-29T10:29:39;7.50;99.90
40952;DHT22;26682;51.660;19.338;2022-12-29T10:32:00;7.50;99.90
40952;DHT22;26682;51.660;19.338;2022-12-29T10:33:58;7.50;99.90
40952;DHT22;26682;51.660;19.338;2022-12-29T10:35:47;7.50;99.90
40952;DHT22;26682;51.660;19.338;2022-12-29T10:37:58;7.50;99.90
40952;DHT22;26682;51.660;19.338;2022-12-29T10:39:51;7.60;99.90
40952;DHT22;26682;51.660;19.338;2022-12-29T10:41:51;7.60;99.90
40952;DHT22;26682;51.660;19.338;2022-12-29T10:43:47;7.60;99.90
40952;DHT22;26682;51.660;19.338;2022-12-29T10:45:36;7.60;99.90
40952;DHT22;26682;51.660;19.338;2022-12-29T10:47:28;7.70;99.90
40952;DHT22;26682;51.660;19.338;2022-12-29T10:49:17;7.80;99.90
40952;DHT22;26682;51.660;19.338;2022-12-29T10:51:08;7.80;99.90
40952;DHT22;26682;51.660;19.338;2022-12-29T10:53:00;7.80;99.90
40952;DHT22;26682;51.660;19.338;2022-12-29T10:54:58;7.90;99.90
40952;DHT22;26682;51.660;19.338;2022-12-29T10:57:08;7.90;99.90
40952;DHT22;26682;51.660;19.338;2022-12-29T11:01:00;8.00;99.90
40952;DHT22;26682;51.660;19.338;2022-12-29T11:05:15;8.00;99.90
40952;DHT22;26682;51.660;19.338;2022-12-29T11:07:06;8.00;99.90
40952;DHT22;26682;51.660;19.338;2022-12-29T11:09:15;8.00;99.90
40952;DHT22;26682;51.660;19.338;2022-12-29T11:11:07;8.00;99.90
40952;DHT22;26682;51.660;19.338;2022-12-29T11:12:57;8.00;99.90
40952;DHT22;26682;51.660;19.338;2022-12-29T11:14:45;8.10;99.90
40952;DHT22;26682;51.660;19.338;2022-12-29T11:16:34;8.10;99.90
40952;DHT22;26682;51.660;19.338;2022-12-29T11:18:25;8.10;99.90
40952;DHT22;26682;51.660;19.338;2022-12-29T11:20:26;8.20;99.90
40952;DHT22;26682;51.660;19.338;2022-12-29T11:22:27;8.20;99.90
40952;DHT22;26682;51.660;19.338;2022-12-29T11:28:16;8.30;99.90
40952;DHT22;26682;51.660;19.338;2022-12-29T11:30:23;8.40;99.90
40952;DHT22;26682;51.660;19.338;2022-12-29T11:36:22;8.40;99.90
40952;DHT22;26682;51.660;19.338;2022-12-29T11:38:22;8.40;99.90
40952;DHT22;26682;51.660;19.338;2022-12-29T11:40:19;8.40;99.90
40952;DHT22;26682;51.660;19.338;2022-12-29T11:42:15;8.40;99.90
40952;DHT22;26682;51.660;19.338;2022-12-29T11:44:05;8.40;99.90
40952;DHT22;26682;51.660;19.338;2022-12-29T11:45:53;8.40;99.90
40952;DHT22;26682;51.660;19.338;2022-12-29T11:47:43;8.40;99.90
40952;DHT22;26682;51.660;19.338;2022-12-29T11:49:31;8.40;99.90
40952;DHT22;26682;51.660;19.338;2022-12-29T11:51:23;8.40;99.90
40952;DHT22;26682;51.660;19.338;2022-12-29T11:53:24;8.50;99.90
40952;DHT22;26682;51.660;19.338;2022-12-29T11:55:21;8.50;99.90
40952;DHT22;26682;51.660;19.338;2022-12-29T11:57:15;8.50;99.90
40952;DHT22;26682;51.660;19.338;2022-12-29T12:01:37;8.60;99.90
40952;DHT22;26682;51.660;19.338;2022-12-29T12:03:27;8.60;99.90
40952;DHT22;26682;51.660;19.338;2022-12-29T12:05:31;8.60;99.90
40952;DHT22;26682;51.660;19.338;2022-12-29T12:07:46;8.60;99.90
40952;DHT22;26682;51.660;19.338;2022-12-29T12:09:58;8.60;99.90
40952;DHT22;26682;51.660;19.338;2022-12-29T12:11:55;8.70;99.90
40952;DHT22;26682;51.660;19.338;2022-12-29T12:16:15;8.60;99.90
40952;DHT22;26682;51.660;19.338;2022-12-29T12:20:53;8.70;99.90
40952;DHT22;26682;51.660;19.338;2022-12-29T12:22:39;8.70;99.90
40952;DHT22;26682;51.660;19.338;2022-12-29T12:24:42;8.70;99.90
40952;DHT22;26682;51.660;19.338;2022-12-29T12:26:39;8.70;99.90
40952;DHT22;26682;51.660;19.338;2022-12-29T12:28:59;8.70;99.90
40952;DHT22;26682;51.660;19.338;2022-12-29T12:30:52;8.80;99.90
40952;DHT22;26682;51.660;19.338;2022-12-29T12:32:58;8.80;1.00
40952;DHT22;26682;51.660;19.338;2022-12-29T12:34:47;8.80;1.00
40952;DHT22;26682;51.660;19.338;2022-12-29T12:40:40;8.80;99.90
40952;DHT22;26682;51.660;19.338;2022-12-29T12:49:12;8.90;99.90
40952;DHT22;26682;51.660;19.338;2022-12-29T12:59:52;9.10;99.90
40952;DHT22;26682;51.660;19.338;2022-12-29T13:06:23;9.10;99.90
40952;DHT22;26682;51.660;19.338;2022-12-29T13:11:17;9.20;99.90
40952;DHT22;26682;51.660;19.338;2022-12-29T13:17:43;9.20;99.90
40952;DHT22;26682;51.660;19.338;2022-12-29T13:27:27;9.30;99.90
40952;DHT22;26682;51.660;19.338;2022-12-29T13:29:32;9.20;99.90
40952;DHT22;26682;51.660;19.338;2022-12-29T13:31:28;9.20;99.90
40952;DHT22;26682;51.660;19.338;2022-12-29T13:37:36;9.20;99.90
40952;DHT22;26682;51.660;19.338;2022-12-29T13:39:32;9.20;99.90
40952;DHT22;26682;51.660;19.338;2022-12-29T13:41:41;9.20;99.90
40952;DHT22;26682;51.660;19.338;2022-12-29T13:43:35;9.20;99.90